Terminal Aerodrome Forecast
Issued by NWS Mt. Holly, NJ

Home | Current Version | Previous Version | Text Only | Print | Product List | Glossary On
Versions: 1 2 3 4 5 6 7 8 9 10 11 12 13 14 15 16 17 18 19 20 21 22 23 24 25 26 27 28 29 30 31 32 33 34 35 36 37 38 39 40 41 42 43 44 45 46
000
FTAK31 PANC 181914 AAA
TAFABE
TAF AMD
PABE 181914Z 1819/1918 14022G32KT P6SM OVC030
     FM182100 15020G30KT 6SM -SN BKN025 OVC035
     FM190100 15025G35KT 5SM -SNRA BR BKN015 OVC025
     FM190900 18017G25KT 4SM -SNRA BR SCT008 OVC015
     FM191500 20015KT P6SM -SHSN BKN015 OVC025=

USA.gov is the U.S. government's official web portal to all federal, state and local government web resources and services.